createdAt,value
2022-12-01T00:00:55.158Z,16.80
2022-12-01T00:03:57.648Z,17.25
2022-12-01T00:07:00.150Z,18.47
2022-12-01T00:10:21.553Z,18.40
2022-12-01T00:13:24.303Z,17.75
2022-12-01T00:16:26.897Z,17.42
2022-12-01T00:19:29.374Z,18.63
2022-12-01T00:22:31.856Z,18.17
2022-12-01T00:25:34.436Z,17.27
2022-12-01T00:28:36.974Z,17.27
2022-12-01T00:31:39.593Z,17.95
2022-12-01T00:34:42.153Z,16.73
2022-12-01T00:37:45.193Z,17.13
2022-12-01T00:40:47.996Z,16.83
2022-12-01T00:43:51.468Z,16.77
2022-12-01T00:46:54.063Z,19.35
2022-12-01T00:49:56.685Z,18.65
2022-12-01T00:52:59.404Z,18.53
2022-12-01T00:56:01.951Z,20.63
2022-12-01T00:59:04.440Z,19.65
2022-12-01T01:02:08.075Z,20.02
2022-12-01T01:05:10.724Z,19.00
2022-12-01T01:08:15.085Z,18.70
2022-12-01T01:11:18.207Z,17.65
2022-12-01T01:14:21.681Z,18.25
2022-12-01T01:17:24.173Z,17.95
2022-12-01T01:20:26.655Z,17.63
2022-12-01T01:23:29.496Z,16.73
2022-12-01T01:26:33.336Z,16.77
2022-12-01T01:29:36.965Z,19.17
2022-12-01T01:32:39.460Z,16.40
2022-12-01T01:35:42.224Z,19.50
2022-12-01T01:38:45.989Z,18.00
2022-12-01T01:41:48.723Z,17.48
2022-12-01T01:44:57.144Z,17.63
2022-12-01T01:48:00.507Z,16.50
2022-12-01T01:51:03.864Z,18.52
2022-12-01T01:54:15.717Z,17.23
2022-12-01T01:57:28.206Z,17.38
2022-12-01T02:00:31.645Z,17.02
2022-12-01T02:03:37.298Z,15.95
2022-12-01T02:06:39.782Z,17.80
2022-12-01T02:09:42.288Z,17.00
2022-12-01T02:13:02.769Z,15.93
2022-12-01T02:16:08.082Z,16.42
2022-12-01T02:19:34.806Z,15.90
2022-12-01T02:22:56.731Z,16.25
2022-12-01T02:26:08.849Z,16.40
2022-12-01T02:29:41.475Z,17.38
2022-12-01T02:32:47.190Z,17.27
2022-12-01T02:36:10.997Z,16.30
2022-12-01T02:39:38.490Z,18.60
2022-12-01T02:43:05.583Z,19.57
2022-12-01T02:46:13.979Z,17.10
2022-12-01T02:49:21.475Z,14.90
2022-12-01T02:52:27.042Z,18.80
2022-12-01T02:55:29.670Z,16.88
2022-12-01T02:58:32.094Z,18.20
2022-12-01T03:02:00.649Z,17.30
2022-12-01T03:05:21.102Z,15.70
2022-12-01T03:08:26.768Z,16.25
2022-12-01T03:11:42.429Z,16.02
2022-12-01T03:14:48.023Z,15.83
2022-12-01T03:18:10.260Z,15.50
2022-12-01T03:21:15.412Z,16.58
2022-12-01T03:24:21.679Z,14.73
2022-12-01T03:27:29.805Z,15.20
2022-12-01T03:30:37.940Z,18.43
2022-12-01T03:33:47.177Z,18.25
2022-12-01T03:36:59.025Z,18.42
2022-12-01T03:40:06.365Z,19.63
2022-12-01T03:43:13.859Z,17.90
2022-12-01T03:46:41.252Z,20.37
2022-12-01T03:49:45.283Z,19.00
2022-12-01T03:53:07.323Z,17.52
2022-12-01T03:56:11.175Z,17.65
2022-12-01T03:59:15.382Z,15.80
2022-12-01T04:02:18.370Z,16.40
2022-12-01T04:05:25.157Z,17.50
2022-12-01T04:08:28.339Z,16.42
2022-12-01T04:11:50.254Z,19.90
2022-12-01T04:14:52.717Z,16.55
2022-12-01T04:17:55.542Z,16.77
2022-12-01T04:20:57.958Z,17.02
2022-12-01T04:24:00.528Z,16.17
2022-12-01T04:27:03.032Z,17.42
2022-12-01T04:30:07.717Z,16.67
2022-12-01T04:33:10.133Z,17.07
2022-12-01T04:36:12.624Z,17.17
2022-12-01T04:39:15.099Z,17.38
2022-12-01T04:42:17.601Z,17.33
2022-12-01T04:45:20.053Z,17.15
2022-12-01T04:48:22.505Z,16.47
2022-12-01T04:51:25.061Z,18.35
2022-12-01T04:54:27.600Z,17.20
2022-12-01T04:57:30.007Z,17.23
2022-12-01T05:00:33.376Z,16.77
2022-12-01T05:03:41.277Z,15.80
2022-12-01T05:06:44.007Z,17.55
2022-12-01T05:09:46.951Z,18.90
2022-12-01T05:12:49.966Z,18.95
2022-12-01T05:15:53.031Z,18.58
2022-12-01T05:19:32.963Z,17.73
2022-12-01T05:23:03.693Z,18.05
2022-12-01T05:25:57.968Z,16.70
2022-12-01T05:29:00.453Z,18.52
2022-12-01T05:32:03.860Z,16.38
2022-12-01T05:35:07.168Z,17.13
2022-12-01T05:38:09.806Z,16.80
2022-12-01T05:41:12.567Z,15.90
2022-12-01T05:44:15.125Z,17.67
2022-12-01T05:47:17.637Z,19.02
2022-12-01T05:50:20.119Z,16.93
2022-12-01T05:53:22.852Z,16.98
2022-12-01T05:56:25.589Z,17.08
2022-12-01T05:59:28.317Z,16.85
2022-12-01T06:02:30.881Z,17.38
2022-12-01T06:05:33.506Z,18.83
2022-12-01T06:08:36.064Z,17.35
2022-12-01T06:11:38.517Z,17.90
2022-12-01T06:14:41.024Z,17.90
2022-12-01T06:17:43.566Z,15.73
2022-12-01T06:20:46.078Z,18.43
2022-12-01T06:23:48.772Z,17.75
2022-12-01T06:26:51.254Z,16.50
2022-12-01T06:29:53.977Z,19.15
2022-12-01T06:32:56.568Z,18.48
2022-12-01T06:36:07.396Z,16.77
2022-12-01T06:39:10.309Z,14.68
2022-12-01T06:42:13.040Z,17.40
2022-12-01T06:45:15.773Z,15.93
2022-12-01T06:48:19.968Z,15.70
2022-12-01T06:51:22.519Z,22.63
2022-12-01T06:54:25.026Z,19.60
2022-12-01T06:57:28.508Z,18.30
2022-12-01T07:00:31.706Z,17.58
2022-12-01T07:03:34.186Z,21.52
2022-12-01T07:06:36.749Z,17.33
2022-12-01T07:09:39.873Z,17.23
2022-12-01T07:12:45.622Z,18.38
2022-12-01T07:15:48.243Z,18.50
2022-12-01T07:18:51.004Z,17.55
2022-12-01T07:21:59.534Z,18.30
2022-12-01T07:25:02.312Z,16.45
2022-12-01T07:28:05.188Z,18.52
2022-12-01T07:31:19.138Z,17.92
2022-12-01T07:34:21.828Z,16.55
2022-12-01T07:37:24.617Z,20.63
2022-12-01T07:40:27.416Z,16.55
2022-12-01T07:43:31.872Z,18.05
2022-12-01T07:46:34.536Z,19.05
2022-12-01T07:49:38.129Z,17.45
2022-12-01T07:52:41.016Z,18.53
2022-12-01T07:55:49.365Z,17.42
2022-12-01T07:58:54.278Z,16.92
2022-12-01T08:02:03.439Z,17.90
2022-12-01T08:05:06.181Z,21.95
2022-12-01T08:08:09.231Z,19.27
2022-12-01T08:11:17.449Z,17.92
2022-12-01T08:14:20.464Z,17.48
2022-12-01T08:17:23.433Z,19.02
2022-12-01T08:20:26.168Z,17.25
2022-12-01T08:23:28.808Z,16.87
2022-12-01T08:26:31.353Z,16.85
2022-12-01T08:29:35.660Z,18.05
2022-12-01T08:32:38.459Z,17.55
2022-12-01T08:35:41.107Z,20.92
2022-12-01T08:38:49.367Z,16.13
2022-12-01T08:41:52.663Z,19.15
2022-12-01T08:44:55.320Z,20.48
2022-12-01T08:47:59.101Z,17.52
2022-12-01T08:51:04.150Z,18.02
2022-12-01T08:54:06.753Z,22.17
2022-12-01T08:57:09.599Z,18.80
2022-12-01T09:00:12.945Z,18.98
2022-12-01T09:03:15.797Z,19.65
2022-12-01T09:06:20.818Z,16.98
2022-12-01T09:09:26.538Z,20.77
2022-12-01T09:12:30.019Z,16.25
2022-12-01T09:15:32.856Z,19.02
2022-12-01T09:18:36.083Z,19.20
2022-12-01T09:21:38.683Z,18.65
2022-12-01T09:24:41.627Z,19.00
2022-12-01T09:27:44.158Z,17.58
2022-12-01T09:30:47.318Z,17.10
2022-12-01T09:34:04.898Z,19.75
2022-12-01T09:37:07.806Z,18.00
2022-12-01T09:40:14.833Z,16.97
2022-12-01T09:43:21.728Z,18.42
2022-12-01T09:46:29.031Z,18.83
2022-12-01T09:49:50.689Z,20.02
2022-12-01T09:53:16.002Z,17.83
2022-12-01T09:56:29.190Z,16.07
2022-12-01T09:59:37.806Z,16.25
2022-12-01T10:02:59.163Z,17.85
2022-12-01T10:06:26.841Z,17.75
2022-12-01T10:10:09.007Z,24.15
2022-12-01T10:13:24.086Z,19.60
2022-12-01T10:16:36.587Z,17.77
2022-12-01T10:20:02.007Z,18.30
2022-12-01T10:23:24.415Z,21.15
2022-12-01T10:26:35.143Z,19.30
2022-12-01T10:29:54.858Z,15.87
2022-12-01T10:33:23.887Z,17.33
2022-12-01T10:36:28.613Z,17.63
2022-12-01T10:39:37.797Z,16.65
2022-12-01T10:42:49.414Z,17.42
2022-12-01T10:45:53.585Z,20.27
2022-12-01T10:49:12.351Z,15.05
2022-12-01T10:52:49.347Z,19.10
2022-12-01T10:56:14.725Z,24.80
2022-12-01T10:59:45.771Z,21.48
2022-12-01T11:02:48.701Z,24.47
2022-12-01T11:05:58.232Z,20.02
2022-12-01T11:09:07.682Z,20.45
2022-12-01T11:12:21.429Z,19.77
2022-12-01T11:15:36.454Z,17.75
2022-12-01T11:18:40.857Z,19.20
2022-12-01T11:21:51.462Z,20.05
2022-12-01T11:24:53.907Z,18.33
2022-12-01T11:28:01.909Z,16.00
2022-12-01T11:31:08.299Z,18.27
2022-12-01T11:34:20.119Z,18.87
2022-12-01T11:42:00.443Z,21.10
2022-12-01T11:45:22.593Z,17.55
2022-12-01T11:48:31.245Z,19.30
2022-12-01T11:51:38.099Z,17.80
2022-12-01T11:54:56.522Z,19.63
2022-12-01T11:58:25.025Z,22.33
2022-12-01T12:02:05.778Z,16.58
2022-12-01T12:05:49.932Z,21.20
2022-12-01T12:09:27.784Z,18.10
2022-12-01T12:12:49.241Z,21.08
2022-12-01T12:16:22.325Z,23.63
2022-12-01T12:20:08.990Z,22.42
2022-12-01T12:23:37.310Z,20.83
2022-12-01T12:50:13.079Z,22.85
2022-12-01T12:56:58.186Z,22.63
2022-12-01T13:00:13.759Z,20.35
2022-12-01T13:03:29.191Z,21.17
2022-12-01T13:06:40.271Z,24.83
2022-12-01T13:09:49.663Z,21.90
2022-12-01T13:12:59.584Z,24.25
2022-12-01T13:16:07.206Z,22.40
2022-12-01T13:19:29.303Z,20.03
2022-12-01T13:22:36.220Z,17.75
2022-12-01T13:25:41.387Z,18.70
2022-12-01T13:28:49.258Z,23.52
2022-12-01T13:31:54.075Z,23.05
2022-12-01T13:34:57.239Z,25.57
2022-12-01T13:38:29.683Z,21.98
2022-12-01T13:41:40.091Z,23.48
2022-12-01T13:45:04.006Z,17.98
2022-12-01T13:48:27.400Z,19.02
2022-12-01T13:52:08.628Z,21.83
2022-12-01T13:55:11.616Z,17.55
2022-12-01T13:58:14.279Z,18.10
2022-12-01T14:01:22.905Z,19.30
2022-12-01T14:04:31.577Z,19.75
2022-12-01T14:07:36.503Z,19.00
2022-12-01T14:10:39.154Z,19.02
2022-12-01T14:13:59.855Z,22.75
2022-12-01T14:17:04.249Z,21.48
2022-12-01T14:20:20.641Z,20.20
2022-12-01T14:23:29.455Z,18.70
2022-12-01T14:26:34.778Z,20.67
2022-12-01T14:29:39.941Z,22.60
2022-12-01T14:32:42.556Z,20.52
2022-12-01T14:35:46.007Z,23.05
2022-12-01T14:38:58.337Z,21.47
2022-12-01T14:42:05.383Z,22.73
2022-12-01T14:45:13.548Z,24.58
2022-12-01T14:48:21.686Z,22.65
2022-12-01T14:51:31.883Z,22.52
2022-12-01T14:54:43.315Z,19.20
2022-12-01T14:57:50.602Z,25.73
2022-12-01T15:01:04.960Z,29.00
2022-12-01T15:04:07.728Z,31.80
2022-12-01T15:07:12.092Z,27.27
2022-12-01T15:10:23.719Z,27.40
2022-12-01T15:13:32.163Z,32.47
2022-12-01T15:16:41.213Z,30.92
2022-12-01T15:19:44.231Z,28.98
2022-12-01T15:22:46.767Z,45.15
2022-12-01T15:25:49.530Z,41.77
2022-12-01T15:29:22.756Z,35.85
2022-12-01T15:32:27.227Z,37.15
2022-12-01T15:35:29.871Z,35.90
2022-12-01T15:38:35.406Z,33.28
2022-12-01T15:41:41.114Z,36.23
2022-12-01T15:44:43.730Z,38.35
2022-12-01T15:47:49.689Z,31.95
2022-12-01T15:51:24.168Z,44.78
2022-12-01T15:54:27.813Z,38.33
2022-12-01T15:57:30.575Z,42.77
2022-12-01T16:00:33.651Z,43.78
2022-12-01T16:04:04.440Z,37.95
2022-12-01T16:07:10.043Z,40.15
2022-12-01T16:10:35.981Z,36.45
2022-12-01T16:13:41.333Z,37.97
2022-12-01T16:16:46.693Z,32.72
2022-12-01T16:19:49.364Z,32.38
2022-12-01T16:23:00.323Z,36.50
2022-12-01T16:26:08.269Z,48.03
2022-12-01T16:29:21.668Z,50.90
2022-12-01T16:32:35.325Z,55.20
2022-12-01T16:35:38.200Z,38.05
2022-12-01T16:38:40.915Z,47.33
2022-12-01T16:41:44.962Z,40.70
2022-12-01T16:44:48.593Z,39.90
2022-12-01T16:47:51.251Z,41.75
2022-12-01T16:50:55.182Z,41.78
2022-12-01T16:53:59.998Z,45.33
2022-12-01T16:57:02.532Z,36.03
2022-12-01T17:00:05.863Z,36.23
2022-12-01T17:03:10.891Z,36.83
2022-12-01T17:06:17.883Z,39.22
2022-12-01T17:09:22.737Z,42.92
2022-12-01T17:12:26.916Z,38.00
2022-12-01T17:15:31.142Z,37.97
2022-12-01T17:18:35.993Z,46.45
2022-12-01T17:21:38.484Z,37.10
2022-12-01T17:24:41.968Z,35.63
2022-12-01T17:27:45.824Z,33.55
2022-12-01T17:30:48.498Z,35.73
2022-12-01T17:33:51.691Z,37.63
2022-12-01T17:36:54.607Z,40.08
2022-12-01T17:39:57.238Z,36.38
2022-12-01T17:42:59.924Z,34.33
2022-12-01T17:46:03.469Z,37.77
2022-12-01T17:49:09.463Z,38.20
2022-12-01T17:52:12.531Z,35.08
2022-12-01T17:55:15.091Z,39.05
2022-12-01T17:58:21.454Z,33.15
2022-12-01T18:01:29.997Z,35.53
2022-12-01T18:04:33.862Z,31.05
2022-12-01T18:07:37.228Z,35.42
2022-12-01T18:10:39.846Z,34.22
2022-12-01T18:13:45.490Z,34.90
2022-12-01T18:16:48.386Z,34.77
2022-12-01T18:19:51.179Z,33.90
2022-12-01T18:22:53.780Z,33.53
2022-12-01T18:25:56.462Z,39.70
2022-12-01T18:29:03.781Z,31.08
2022-12-01T18:32:07.185Z,31.50
2022-12-01T18:35:10.386Z,34.08
2022-12-01T18:38:13.458Z,30.30
2022-12-01T18:41:17.057Z,34.78
2022-12-01T18:44:20.572Z,30.67
2022-12-01T18:47:23.579Z,33.67
2022-12-01T18:50:26.687Z,34.35
2022-12-01T18:53:29.653Z,34.55
2022-12-01T18:56:32.998Z,29.98
2022-12-01T18:59:36.315Z,33.75
2022-12-01T19:02:39.275Z,28.90
2022-12-01T19:05:42.248Z,35.42
2022-12-01T19:08:45.367Z,33.33
2022-12-01T19:11:48.240Z,32.17
2022-12-01T19:14:55.519Z,31.30
2022-12-01T19:17:58.824Z,32.37
2022-12-01T19:21:03.999Z,30.33
2022-12-01T19:24:06.888Z,33.05
2022-12-01T19:27:09.875Z,33.47
2022-12-01T19:30:14.001Z,30.80
2022-12-01T19:33:18.098Z,32.87
2022-12-01T19:36:26.965Z,31.50
2022-12-01T19:39:30.035Z,34.45
2022-12-01T19:42:33.917Z,26.30
2022-12-01T19:45:38.672Z,34.53
2022-12-01T19:48:43.582Z,34.30
2022-12-01T19:51:47.260Z,28.08
2022-12-01T19:54:51.230Z,29.38
2022-12-01T19:57:56.612Z,33.08
2022-12-01T20:01:07.901Z,31.13
2022-12-01T20:04:11.125Z,28.97
2022-12-01T20:07:14.118Z,31.65
2022-12-01T20:10:20.596Z,33.15
2022-12-01T20:13:23.579Z,28.90
2022-12-01T20:16:35.487Z,30.50
2022-12-01T20:19:38.624Z,28.20
2022-12-01T20:22:41.918Z,29.40
2022-12-01T20:25:53.016Z,32.15
2022-12-01T20:29:05.304Z,29.50
2022-12-01T20:32:08.635Z,30.48
2022-12-01T20:35:12.485Z,28.23
2022-12-01T20:38:16.788Z,30.20
2022-12-01T20:41:20.254Z,29.70
2022-12-01T20:44:23.878Z,29.10
2022-12-01T20:47:27.798Z,32.05
2022-12-01T20:50:30.918Z,28.47
2022-12-01T20:53:35.145Z,30.48
2022-12-01T20:56:39.224Z,31.55
2022-12-01T20:59:41.846Z,27.02
2022-12-01T21:02:45.169Z,27.92
2022-12-01T21:05:49.360Z,28.90
2022-12-01T21:08:52.537Z,28.65
2022-12-01T21:12:16.512Z,30.27
2022-12-01T21:15:31.316Z,30.30
2022-12-01T21:18:53.256Z,26.10
2022-12-01T21:21:55.986Z,27.17
2022-12-01T21:25:06.395Z,32.50
2022-12-01T21:28:24.475Z,28.15
2022-12-01T21:31:27.589Z,25.30
2022-12-01T21:34:30.264Z,27.65
2022-12-01T21:37:32.841Z,26.70
2022-12-01T21:40:37.354Z,28.27
2022-12-01T21:43:39.932Z,27.48
2022-12-01T21:46:43.063Z,25.48
2022-12-01T21:49:47.761Z,28.05
2022-12-01T21:52:51.267Z,25.60
2022-12-01T21:55:56.310Z,25.77
2022-12-01T21:59:21.823Z,26.10
2022-12-01T22:02:52.527Z,26.17
2022-12-01T22:06:28.852Z,24.83
2022-12-01T22:09:31.926Z,26.07
2022-12-01T22:12:34.400Z,27.23
2022-12-01T22:15:41.525Z,25.20
2022-12-01T22:18:56.137Z,26.17
2022-12-01T22:22:10.927Z,26.73
2022-12-01T22:25:24.370Z,25.93
2022-12-01T22:28:26.922Z,23.70
2022-12-01T22:31:29.834Z,27.60
2022-12-01T22:34:32.492Z,25.75
2022-12-01T22:37:42.984Z,26.05
2022-12-01T22:40:48.448Z,27.13
2022-12-01T22:43:55.677Z,23.95
2022-12-01T22:47:02.539Z,27.98
2022-12-01T22:50:30.215Z,25.20
2022-12-01T22:53:32.651Z,24.67
2022-12-01T22:56:46.557Z,24.50
2022-12-01T22:59:50.372Z,26.67
2022-12-01T23:02:56.436Z,25.75
2022-12-01T23:05:59.064Z,24.20
2022-12-01T23:09:02.339Z,26.30
2022-12-01T23:12:28.881Z,23.40
2022-12-01T23:15:34.203Z,22.60
2022-12-01T23:18:36.869Z,23.63
2022-12-01T23:21:56.045Z,23.55
2022-12-01T23:25:00.621Z,23.90
2022-12-01T23:28:08.526Z,26.27
2022-12-01T23:31:11.275Z,24.83
2022-12-01T23:34:16.018Z,24.02
2022-12-01T23:37:33.112Z,24.15
2022-12-01T23:40:36.395Z,26.02
2022-12-01T23:43:41.604Z,24.00
2022-12-01T23:46:44.616Z,23.88
2022-12-01T23:49:51.004Z,25.02
2022-12-01T23:52:54.252Z,25.42
2022-12-01T23:56:03.044Z,27.17
2022-12-01T23:59:12.334Z,26.20
